Homestead, Pennsylvania
Current Conditions -  °F | °C
As of 6:22 PM on Saturday 20 Dec 2014 (Local Time) from KAGC Reporting Station
Broken Clouds Broken Clouds  
Wind Chill: 21°   Ceiling: 2800
Heat Index: 28°   Visibility: 10mi
Dew Point: 17°   Wind: 7mph
Humidity: 63%   Direction: 280°W
Pressure: 30.23"   Gusts: NA
Location:  40.41°N, 79.91°W
Report Text: KAGC 202322Z AUTO 28006KT 10SM BKN028 M02/M08 A3023 RMK AO2 T10221083 TSNO
Loading
Personal Weather Stations






























Interactive Weather Map New forecast layout! Learn more

10-Day Weather Forecast

Advertisements
Track Severe Weather on mobile